Nearby METAR Reports

 

EGNT - Newcastle, United Kingdom
Distance from station: N 1mi, 2km
Updated: 11/08/2022 22:20
Clear
Clear
 Wind from SSW
Wind: SSW 2 mph , 4 km/h
Temperature: 18°C
Dew Point: 11°C
Humidity: 64%
Barometer: 1022 hPa
Summary: Clear
Visibility: greater than 7 miles , 10 km
2022/08/11 21:20 EGNT 112120Z 21002KT CAVOK 18/11 Q1022
EGQM - Boulmer, United Kingdom
Distance from station: N 29mi, 47km
Updated: 11/08/2022 21:50
Clear
Clear
 Wind from WSW
Wind: WSW 7 mph , 11 km/h
Temperature: 19°C
Dew Point: 12°C
Humidity: 64%
Barometer: 1021 hPa
Clouds: Clear
Visibility: 6 miles , 10 km
2022/08/11 20:50 EGQM 112050Z AUTO 24006KT 9999 NCD 19/12 Q1021
 
EGOM - Spadeadam, United Kingdom
Distance from station: W 34mi, 54km
Updated: 11/08/2022 22:20
Clear
Clear
 Wind from WNW
Wind: WNW 3 mph , 6 km/h
Temperature: 16°C
Dew Point: 11°C
Humidity: 72%
Barometer: 1023 hPa
Clouds: Clear
Visibility: 6 miles , 10 km
2022/08/11 21:20 EGOM 112120Z AUTO 29003KT 9999 NCD 16/11 Q1023
EGNV - Tees-Side, United Kingdom
Distance from station: SSE 35mi, 57km
Updated: 11/08/2022 22:20
Clear
Clear
 Wind from varies
Wind: varies 3 mph , 6 km/h
Temperature: 19°C
Dew Point: 13°C
Humidity: 68%
Barometer: 1022 hPa
Summary: Clear
Visibility: greater than 7 miles , 10 km
2022/08/11 21:20 EGNV 112120Z VRB03KT CAVOK 19/13 Q1022
 
EGXE - Leeming Raf, United Kingdom
Distance from station: S 50mi, 81km
Updated: 11/08/2022 22:20
Clear
Clear
 Wind from SSE
Wind: SSE 3 mph , 6 km/h
Temperature: 21°C
Dew Point: 10°C
Humidity: 50%
Barometer: 1022 hPa
Clouds: Clear
Visibility: 6 miles , 10 km
2022/08/11 21:20 EGXE 112120Z AUTO 16003KT 9999 NCD 21/10 Q1022
EGXZ - Topcliffe Raf, United Kingdom
Distance from station: SSE 57mi, 91km
Updated: 11/08/2022 21:50
Clear
Clear
 Wind from SE
Wind: SE 7 mph , 11 km/h
Temperature: 20°C
Dew Point: 11°C
Humidity: 56%
Barometer: 1022 hPa
Clouds: Clear
2022/08/11 20:50 EGXZ 112050Z AUTO 14006KT //// // NCD 20/11 Q1022
 
EGNM - Leeds And Bradfo, United Kingdom
Distance from station: S 78mi, 126km
Updated: 11/08/2022 22:20
Clear
Clear
 Wind from NE
Wind: NE 3 mph , 6 km/h
Temperature: 20°C
Dew Point: 9°C
Humidity: 49%
Barometer: 1023 hPa
Summary: Clear
Visibility: greater than 7 miles , 10 km
2022/08/11 21:20 EGNM 112120Z 04003KT CAVOK 20/09 Q1023
EGPH - Edinburgh Airpor, United Kingdom
Distance from station: NW 92mi, 148km
Updated: 11/08/2022 22:20
Clear
Clear
 Wind from SW
Wind: SW 6 mph , 9 km/h
Temperature: 17°C
Dew Point: 6°C
Humidity: 49%
Barometer: 1023 hPa
Summary: Clear
Visibility: greater than 7 miles , 10 km
2022/08/11 21:20 EGPH 112120Z 22005KT CAVOK 17/06 Q1023
 
EGXV - Leconfield (aut), United Kingdom
Distance from station: SE 93mi, 150km
Updated: 11/08/2022 22:20
Mist, Clear
Mist, Clear
 Wind from E
Wind: E 5 mph , 7 km/h
Temperature: 16°C
Dew Point: 14°C
Humidity: 88%
Barometer: 1022 hPa
Summary: Mist
Clouds: Clear
Visibility: 5 miles , 8 km
2022/08/11 21:20 EGXV 112120Z AUTO 08004KT 8000 BR NCD 16/14 Q1022
EGNO - Wharton, United Kingdom
Distance from station: SSW 99mi, 159km
Updated: 11/08/2022 18:50
NOT Current
Clear
Clear
 Wind from N
Wind: N 7 mph , 11 km/h
Temperature: 26°C
Dew Point: 12°C
Humidity: 42%
Barometer: 1020 hPa
Summary: Clear
Visibility: greater than 7 miles , 10 km
2022/08/11 17:50 EGNO 111750Z 35006KT 330V030 CAVOK 26/12 Q1020
 
EGNH - Blackpool Airpor, United Kingdom
Distance from station: SSW 100mi, 161km
Updated: 11/08/2022 20:50
NOT Current
Clear
Clear
 Wind from N
Wind: N 10 mph , 17 km/h
Temperature: 22°C
Dew Point: 13°C
Humidity: 57%
Barometer: 1021 hPa
Summary: Clear
Visibility: greater than 7 miles , 10 km
2022/08/11 19:50 EGNH 111950Z 36009KT CAVOK 22/13 Q1021